sensor_id;sensor_type;location;lat;lon;timestamp;temperature;humidity
7331;DHT22;3706;49.198;7.064;2023-08-20T00:01:07;18.40;99.90
7331;DHT22;3706;49.198;7.064;2023-08-20T00:03:36;18.30;99.90
7331;DHT22;3706;49.198;7.064;2023-08-20T00:06:04;18.30;99.90
7331;DHT22;3706;49.198;7.064;2023-08-20T00:08:31;18.30;99.90
7331;DHT22;3706;49.198;7.064;2023-08-20T00:10:58;18.30;99.90
7331;DHT22;3706;49.198;7.064;2023-08-20T00:13:25;18.20;99.90
7331;DHT22;3706;49.198;7.064;2023-08-20T00:15:55;18.30;99.90
7331;DHT22;3706;49.198;7.064;2023-08-20T00:18:23;18.30;99.90
7331;DHT22;3706;49.198;7.064;2023-08-20T00:20:50;18.30;99.90
7331;DHT22;3706;49.198;7.064;2023-08-20T00:23:18;18.20;99.90
7331;DHT22;3706;49.198;7.064;2023-08-20T00:25:45;18.20;99.90
7331;DHT22;3706;49.198;7.064;2023-08-20T00:28:12;18.20;99.90
7331;DHT22;3706;49.198;7.064;2023-08-20T00:30:40;18.20;99.90
7331;DHT22;3706;49.198;7.064;2023-08-20T00:33:08;18.20;99.90
7331;DHT22;3706;49.198;7.064;2023-08-20T00:35:35;18.20;99.90
7331;DHT22;3706;49.198;7.064;2023-08-20T00:38:02;18.10;99.90
7331;DHT22;3706;49.198;7.064;2023-08-20T00:40:30;18.00;99.90
7331;DHT22;3706;49.198;7.064;2023-08-20T00:42:57;17.90;99.90
7331;DHT22;3706;49.198;7.064;2023-08-20T00:45:27;18.00;99.90
7331;DHT22;3706;49.198;7.064;2023-08-20T00:47:54;18.00;99.90
7331;DHT22;3706;49.198;7.064;2023-08-20T00:50:23;17.90;99.90
7331;DHT22;3706;49.198;7.064;2023-08-20T00:52:50;17.90;99.90
7331;DHT22;3706;49.198;7.064;2023-08-20T00:55:18;17.90;99.90
7331;DHT22;3706;49.198;7.064;2023-08-20T00:57:45;17.90;99.90
7331;DHT22;3706;49.198;7.064;2023-08-20T01:00:12;17.80;99.90
7331;DHT22;3706;49.198;7.064;2023-08-20T01:02:39;17.80;99.90
7331;DHT22;3706;49.198;7.064;2023-08-20T01:05:09;17.80;99.90
7331;DHT22;3706;49.198;7.064;2023-08-20T01:07:48;17.90;99.90
7331;DHT22;3706;49.198;7.064;2023-08-20T01:10:21;17.90;99.90
7331;DHT22;3706;49.198;7.064;2023-08-20T01:12:51;17.80;99.90
7331;DHT22;3706;49.198;7.064;2023-08-20T01:15:19;17.80;99.90
7331;DHT22;3706;49.198;7.064;2023-08-20T01:17:46;17.90;99.90
7331;DHT22;3706;49.198;7.064;2023-08-20T01:20:13;18.00;99.90
7331;DHT22;3706;49.198;7.064;2023-08-20T01:26:25;17.90;99.90
7331;DHT22;3706;49.198;7.064;2023-08-20T01:28:56;17.80;99.90
7331;DHT22;3706;49.198;7.064;2023-08-20T01:31:25;17.80;99.90
7331;DHT22;3706;49.198;7.064;2023-08-20T01:33:55;17.80;99.90
7331;DHT22;3706;49.198;7.064;2023-08-20T01:36:25;17.90;99.90
7331;DHT22;3706;49.198;7.064;2023-08-20T01:38:55;18.00;99.90
7331;DHT22;3706;49.198;7.064;2023-08-20T01:41:22;18.10;99.90
7331;DHT22;3706;49.198;7.064;2023-08-20T01:43:49;18.10;99.90
7331;DHT22;3706;49.198;7.064;2023-08-20T01:46:17;18.10;99.90
7331;DHT22;3706;49.198;7.064;2023-08-20T01:48:44;18.00;99.90
7331;DHT22;3706;49.198;7.064;2023-08-20T01:51:11;18.10;99.90
7331;DHT22;3706;49.198;7.064;2023-08-20T01:53:39;18.20;99.90
7331;DHT22;3706;49.198;7.064;2023-08-20T01:56:11;18.10;99.90
7331;DHT22;3706;49.198;7.064;2023-08-20T01:58:38;18.00;99.90
7331;DHT22;3706;49.198;7.064;2023-08-20T02:01:05;17.90;99.90
7331;DHT22;3706;49.198;7.064;2023-08-20T02:03:35;17.90;99.90
7331;DHT22;3706;49.198;7.064;2023-08-20T02:06:02;17.80;99.90
7331;DHT22;3706;49.198;7.064;2023-08-20T02:08:32;17.80;99.90
7331;DHT22;3706;49.198;7.064;2023-08-20T02:11:00;17.80;99.90
7331;DHT22;3706;49.198;7.064;2023-08-20T02:13:27;17.70;99.90
7331;DHT22;3706;49.198;7.064;2023-08-20T02:15:58;17.80;99.90
7331;DHT22;3706;49.198;7.064;2023-08-20T02:18:25;17.80;99.90
7331;DHT22;3706;49.198;7.064;2023-08-20T02:20:54;17.70;99.90
7331;DHT22;3706;49.198;7.064;2023-08-20T02:23:21;17.60;99.90
7331;DHT22;3706;49.198;7.064;2023-08-20T02:25:48;17.60;99.90
7331;DHT22;3706;49.198;7.064;2023-08-20T02:28:15;17.60;99.90
7331;DHT22;3706;49.198;7.064;2023-08-20T02:30:43;17.70;99.90
7331;DHT22;3706;49.198;7.064;2023-08-20T02:33:11;17.70;99.90
7331;DHT22;3706;49.198;7.064;2023-08-20T02:35:38;17.70;99.90
7331;DHT22;3706;49.198;7.064;2023-08-20T02:38:06;17.70;99.90
7331;DHT22;3706;49.198;7.064;2023-08-20T02:40:40;17.70;99.90
7331;DHT22;3706;49.198;7.064;2023-08-20T02:43:07;17.80;99.90
7331;DHT22;3706;49.198;7.064;2023-08-20T02:45:40;17.80;99.90
7331;DHT22;3706;49.198;7.064;2023-08-20T02:48:07;17.80;99.90
7331;DHT22;3706;49.198;7.064;2023-08-20T02:50:34;17.70;99.90
7331;DHT22;3706;49.198;7.064;2023-08-20T02:53:01;17.70;99.90
7331;DHT22;3706;49.198;7.064;2023-08-20T02:55:30;17.60;99.90
7331;DHT22;3706;49.198;7.064;2023-08-20T02:57:58;17.60;99.90
7331;DHT22;3706;49.198;7.064;2023-08-20T03:00:25;17.60;99.90
7331;DHT22;3706;49.198;7.064;2023-08-20T03:02:51;17.60;99.90
7331;DHT22;3706;49.198;7.064;2023-08-20T03:05:19;17.50;99.90
7331;DHT22;3706;49.198;7.064;2023-08-20T03:07:46;17.60;99.90
7331;DHT22;3706;49.198;7.064;2023-08-20T03:10:13;17.60;99.90
7331;DHT22;3706;49.198;7.064;2023-08-20T03:12:41;17.50;99.90
7331;DHT22;3706;49.198;7.064;2023-08-20T03:15:08;17.50;99.90
7331;DHT22;3706;49.198;7.064;2023-08-20T03:17:35;17.50;99.90
7331;DHT22;3706;49.198;7.064;2023-08-20T03:20:02;17.50;99.90
7331;DHT22;3706;49.198;7.064;2023-08-20T03:22:32;17.50;99.90
7331;DHT22;3706;49.198;7.064;2023-08-20T03:24:59;17.50;99.90
7331;DHT22;3706;49.198;7.064;2023-08-20T03:27:26;17.60;99.90
7331;DHT22;3706;49.198;7.064;2023-08-20T03:29:54;17.70;99.90
7331;DHT22;3706;49.198;7.064;2023-08-20T03:32:21;17.80;99.90
7331;DHT22;3706;49.198;7.064;2023-08-20T03:34:49;17.90;99.90
7331;DHT22;3706;49.198;7.064;2023-08-20T03:37:16;18.00;99.90
7331;DHT22;3706;49.198;7.064;2023-08-20T03:39:43;18.00;99.90
7331;DHT22;3706;49.198;7.064;2023-08-20T03:42:10;18.00;99.90
7331;DHT22;3706;49.198;7.064;2023-08-20T03:44:37;17.90;99.90
7331;DHT22;3706;49.198;7.064;2023-08-20T03:47:06;17.90;99.90
7331;DHT22;3706;49.198;7.064;2023-08-20T03:49:33;17.90;99.90
7331;DHT22;3706;49.198;7.064;2023-08-20T03:52:00;18.10;99.90
7331;DHT22;3706;49.198;7.064;2023-08-20T03:54:27;18.30;99.90
7331;DHT22;3706;49.198;7.064;2023-08-20T03:56:55;18.30;99.90
7331;DHT22;3706;49.198;7.064;2023-08-20T03:59:22;18.30;99.90
7331;DHT22;3706;49.198;7.064;2023-08-20T04:01:49;18.30;99.90
7331;DHT22;3706;49.198;7.064;2023-08-20T04:04:17;18.20;99.90
7331;DHT22;3706;49.198;7.064;2023-08-20T04:06:44;18.20;99.90
7331;DHT22;3706;49.198;7.064;2023-08-20T04:09:11;18.20;99.90
7331;DHT22;3706;49.198;7.064;2023-08-20T04:11:38;18.20;99.90
7331;DHT22;3706;49.198;7.064;2023-08-20T04:14:05;18.30;99.90
7331;DHT22;3706;49.198;7.064;2023-08-20T04:16:32;18.40;99.90
7331;DHT22;3706;49.198;7.064;2023-08-20T04:18:59;18.40;99.90
7331;DHT22;3706;49.198;7.064;2023-08-20T04:21:28;18.30;99.90
7331;DHT22;3706;49.198;7.064;2023-08-20T04:23:55;18.30;99.90
7331;DHT22;3706;49.198;7.064;2023-08-20T04:26:22;18.20;99.90
7331;DHT22;3706;49.198;7.064;2023-08-20T04:28:49;18.20;99.90
7331;DHT22;3706;49.198;7.064;2023-08-20T04:31:16;18.10;99.90
7331;DHT22;3706;49.198;7.064;2023-08-20T04:33:43;18.10;99.90
7331;DHT22;3706;49.198;7.064;2023-08-20T04:36:09;18.00;99.90
7331;DHT22;3706;49.198;7.064;2023-08-20T04:38:38;17.90;99.90
7331;DHT22;3706;49.198;7.064;2023-08-20T04:41:08;17.90;99.90
7331;DHT22;3706;49.198;7.064;2023-08-20T04:43:35;17.90;99.90
7331;DHT22;3706;49.198;7.064;2023-08-20T04:46:02;17.90;99.90
7331;DHT22;3706;49.198;7.064;2023-08-20T04:48:29;17.90;99.90
7331;DHT22;3706;49.198;7.064;2023-08-20T04:50:55;17.90;99.90
7331;DHT22;3706;49.198;7.064;2023-08-20T04:53:22;17.90;99.90
7331;DHT22;3706;49.198;7.064;2023-08-20T04:55:51;17.90;99.90
7331;DHT22;3706;49.198;7.064;2023-08-20T04:58:18;17.90;99.90
7331;DHT22;3706;49.198;7.064;2023-08-20T05:00:45;17.90;99.90
7331;DHT22;3706;49.198;7.064;2023-08-20T05:03:12;17.80;99.90
7331;DHT22;3706;49.198;7.064;2023-08-20T05:05:39;17.80;99.90
7331;DHT22;3706;49.198;7.064;2023-08-20T05:08:06;17.80;99.90
7331;DHT22;3706;49.198;7.064;2023-08-20T05:10:35;18.00;99.90
7331;DHT22;3706;49.198;7.064;2023-08-20T05:13:04;18.10;99.90
7331;DHT22;3706;49.198;7.064;2023-08-20T05:15:31;18.00;99.90
7331;DHT22;3706;49.198;7.064;2023-08-20T05:17:58;18.20;99.90
7331;DHT22;3706;49.198;7.064;2023-08-20T05:20:25;18.20;99.90
7331;DHT22;3706;49.198;7.064;2023-08-20T05:22:52;18.30;99.90
7331;DHT22;3706;49.198;7.064;2023-08-20T05:25:19;18.40;99.90
7331;DHT22;3706;49.198;7.064;2023-08-20T05:27:46;18.50;99.90
7331;DHT22;3706;49.198;7.064;2023-08-20T05:30:15;18.50;99.90
7331;DHT22;3706;49.198;7.064;2023-08-20T05:32:42;18.50;99.90
7331;DHT22;3706;49.198;7.064;2023-08-20T05:35:09;18.60;99.90
7331;DHT22;3706;49.198;7.064;2023-08-20T05:37:36;18.70;99.90
7331;DHT22;3706;49.198;7.064;2023-08-20T05:40:03;18.70;99.90
7331;DHT22;3706;49.198;7.064;2023-08-20T05:42:30;18.80;99.90
7331;DHT22;3706;49.198;7.064;2023-08-20T05:44:57;19.20;99.90
7331;DHT22;3706;49.198;7.064;2023-08-20T05:47:26;19.80;99.90
7331;DHT22;3706;49.198;7.064;2023-08-20T05:49:53;20.60;99.90
7331;DHT22;3706;49.198;7.064;2023-08-20T05:52:19;21.40;99.90
7331;DHT22;3706;49.198;7.064;2023-08-20T05:54:47;22.40;99.90
7331;DHT22;3706;49.198;7.064;2023-08-20T05:57:14;23.30;99.90
7331;DHT22;3706;49.198;7.064;2023-08-20T05:59:41;24.30;99.90
7331;DHT22;3706;49.198;7.064;2023-08-20T06:02:08;25.20;99.90
7331;DHT22;3706;49.198;7.064;2023-08-20T06:04:36;26.00;99.90
7331;DHT22;3706;49.198;7.064;2023-08-20T06:07:03;26.90;99.90
7331;DHT22;3706;49.198;7.064;2023-08-20T06:09:30;27.60;99.90
7331;DHT22;3706;49.198;7.064;2023-08-20T06:11:57;28.20;99.90
7331;DHT22;3706;49.198;7.064;2023-08-20T06:14:24;28.70;99.90
7331;DHT22;3706;49.198;7.064;2023-08-20T06:16:51;29.20;99.90
7331;DHT22;3706;49.198;7.064;2023-08-20T06:19:18;29.60;99.90
7331;DHT22;3706;49.198;7.064;2023-08-20T06:21:46;29.90;99.90
7331;DHT22;3706;49.198;7.064;2023-08-20T06:24:13;30.20;99.90
7331;DHT22;3706;49.198;7.064;2023-08-20T06:26:40;30.60;99.90
7331;DHT22;3706;49.198;7.064;2023-08-20T06:29:09;31.10;99.90
7331;DHT22;3706;49.198;7.064;2023-08-20T06:31:36;31.50;99.90
7331;DHT22;3706;49.198;7.064;2023-08-20T06:34:03;32.00;99.90
7331;DHT22;3706;49.198;7.064;2023-08-20T06:36:30;32.50;99.90
7331;DHT22;3706;49.198;7.064;2023-08-20T06:38:59;32.90;99.90
7331;DHT22;3706;49.198;7.064;2023-08-20T06:41:25;33.40;99.30
7331;DHT22;3706;49.198;7.064;2023-08-20T06:43:52;33.70;97.90
7331;DHT22;3706;49.198;7.064;2023-08-20T06:46:19;34.10;96.10
7331;DHT22;3706;49.198;7.064;2023-08-20T06:48:46;34.30;94.80
7331;DHT22;3706;49.198;7.064;2023-08-20T06:51:14;34.60;93.40
7331;DHT22;3706;49.198;7.064;2023-08-20T06:53:41;34.80;92.10
7331;DHT22;3706;49.198;7.064;2023-08-20T06:56:10;35.10;91.20
7331;DHT22;3706;49.198;7.064;2023-08-20T06:58:38;35.40;90.40
7331;DHT22;3706;49.198;7.064;2023-08-20T07:01:05;35.70;88.80
7331;DHT22;3706;49.198;7.064;2023-08-20T07:03:36;35.90;87.10
7331;DHT22;3706;49.198;7.064;2023-08-20T07:06:04;36.10;85.40
7331;DHT22;3706;49.198;7.064;2023-08-20T07:08:30;36.40;83.90
7331;DHT22;3706;49.198;7.064;2023-08-20T07:10:58;36.60;82.50
7331;DHT22;3706;49.198;7.064;2023-08-20T07:13:26;36.80;81.90
7331;DHT22;3706;49.198;7.064;2023-08-20T07:15:53;36.90;80.60
7331;DHT22;3706;49.198;7.064;2023-08-20T07:18:20;36.90;79.70
7331;DHT22;3706;49.198;7.064;2023-08-20T07:20:47;36.90;79.50
7331;DHT22;3706;49.198;7.064;2023-08-20T07:23:14;37.10;79.20
7331;DHT22;3706;49.198;7.064;2023-08-20T07:25:41;37.30;79.00
7331;DHT22;3706;49.198;7.064;2023-08-20T07:28:10;37.60;78.20
7331;DHT22;3706;49.198;7.064;2023-08-20T07:30:39;37.90;77.00
7331;DHT22;3706;49.198;7.064;2023-08-20T07:33:07;38.30;76.20
7331;DHT22;3706;49.198;7.064;2023-08-20T07:35:34;38.60;74.80
7331;DHT22;3706;49.198;7.064;2023-08-20T07:38:01;38.90;73.90
7331;DHT22;3706;49.198;7.064;2023-08-20T07:40:28;39.20;73.00
7331;DHT22;3706;49.198;7.064;2023-08-20T07:42:55;39.50;72.10
7331;DHT22;3706;49.198;7.064;2023-08-20T07:45:23;39.60;71.70
7331;DHT22;3706;49.198;7.064;2023-08-20T07:47:51;39.90;71.00
7331;DHT22;3706;49.198;7.064;2023-08-20T07:50:18;40.10;70.20
7331;DHT22;3706;49.198;7.064;2023-08-20T07:52:45;40.40;69.30
7331;DHT22;3706;49.198;7.064;2023-08-20T07:55:12;40.50;68.60
7331;DHT22;3706;49.198;7.064;2023-08-20T07:57:39;40.50;68.20
7331;DHT22;3706;49.198;7.064;2023-08-20T08:00:07;40.60;68.10
7331;DHT22;3706;49.198;7.064;2023-08-20T08:02:34;40.70;67.40
7331;DHT22;3706;49.198;7.064;2023-08-20T08:05:03;40.70;66.70
7331;DHT22;3706;49.198;7.064;2023-08-20T08:07:30;40.80;65.50
7331;DHT22;3706;49.198;7.064;2023-08-20T08:09:57;41.10;65.80
7331;DHT22;3706;49.198;7.064;2023-08-20T08:12:24;41.40;64.90
7331;DHT22;3706;49.198;7.064;2023-08-20T08:14:51;41.70;64.20
7331;DHT22;3706;49.198;7.064;2023-08-20T08:17:18;41.80;64.00
7331;DHT22;3706;49.198;7.064;2023-08-20T08:19:46;42.00;63.90
7331;DHT22;3706;49.198;7.064;2023-08-20T08:22:14;42.20;63.90
7331;DHT22;3706;49.198;7.064;2023-08-20T08:24:41;42.40;62.60
7331;DHT22;3706;49.198;7.064;2023-08-20T08:27:09;42.50;63.10
7331;DHT22;3706;49.198;7.064;2023-08-20T08:29:36;42.70;62.40
7331;DHT22;3706;49.198;7.064;2023-08-20T08:32:03;43.00;61.20
7331;DHT22;3706;49.198;7.064;2023-08-20T08:34:30;43.20;61.30
7331;DHT22;3706;49.198;7.064;2023-08-20T08:36:57;43.50;61.10
7331;DHT22;3706;49.198;7.064;2023-08-20T08:39:26;43.90;60.70
7331;DHT22;3706;49.198;7.064;2023-08-20T08:41:56;44.00;59.60
7331;DHT22;3706;49.198;7.064;2023-08-20T08:44:26;43.50;59.80
7331;DHT22;3706;49.198;7.064;2023-08-20T08:46:53;43.50;59.50
7331;DHT22;3706;49.198;7.064;2023-08-20T08:49:22;43.40;59.20
7331;DHT22;3706;49.198;7.064;2023-08-20T08:51:51;43.60;57.80
7331;DHT22;3706;49.198;7.064;2023-08-20T08:54:18;43.70;56.30
7331;DHT22;3706;49.198;7.064;2023-08-20T08:56:47;43.80;56.30
7331;DHT22;3706;49.198;7.064;2023-08-20T08:59:14;43.80;55.50
7331;DHT22;3706;49.198;7.064;2023-08-20T09:01:41;43.80;55.50
7331;DHT22;3706;49.198;7.064;2023-08-20T09:04:08;44.10;55.90
7331;DHT22;3706;49.198;7.064;2023-08-20T09:06:45;44.50;55.00
7331;DHT22;3706;49.198;7.064;2023-08-20T09:09:13;44.70;54.20
7331;DHT22;3706;49.198;7.064;2023-08-20T09:11:40;44.80;53.90
7331;DHT22;3706;49.198;7.064;2023-08-20T09:14:10;44.70;54.10
7331;DHT22;3706;49.198;7.064;2023-08-20T09:16:47;44.50;53.90
7331;DHT22;3706;49.198;7.064;2023-08-20T09:19:14;44.20;54.50
7331;DHT22;3706;49.198;7.064;2023-08-20T09:21:46;43.80;55.40
7331;DHT22;3706;49.198;7.064;2023-08-20T09:24:14;43.60;55.90
7331;DHT22;3706;49.198;7.064;2023-08-20T09:26:45;43.60;55.10
7331;DHT22;3706;49.198;7.064;2023-08-20T09:29:14;43.30;55.60
7331;DHT22;3706;49.198;7.064;2023-08-20T09:31:40;43.00;55.90
7331;DHT22;3706;49.198;7.064;2023-08-20T09:34:12;43.00;55.80
7331;DHT22;3706;49.198;7.064;2023-08-20T09:36:40;43.10;54.60
7331;DHT22;3706;49.198;7.064;2023-08-20T09:39:07;43.40;54.70
7331;DHT22;3706;49.198;7.064;2023-08-20T09:41:36;43.80;54.10
7331;DHT22;3706;49.198;7.064;2023-08-20T09:44:04;44.00;54.20
7331;DHT22;3706;49.198;7.064;2023-08-20T09:46:34;44.00;54.30
7331;DHT22;3706;49.198;7.064;2023-08-20T09:49:02;44.00;54.20
7331;DHT22;3706;49.198;7.064;2023-08-20T09:51:33;43.90;53.60
7331;DHT22;3706;49.198;7.064;2023-08-20T09:54:07;43.80;54.00
7331;DHT22;3706;49.198;7.064;2023-08-20T09:56:40;44.00;52.90
7331;DHT22;3706;49.198;7.064;2023-08-20T09:59:07;44.30;52.80
7331;DHT22;3706;49.198;7.064;2023-08-20T10:01:38;44.60;52.00
7331;DHT22;3706;49.198;7.064;2023-08-20T10:04:05;45.00;51.60
7331;DHT22;3706;49.198;7.064;2023-08-20T10:06:34;45.30;50.90
7331;DHT22;3706;49.198;7.064;2023-08-20T10:09:02;45.80;50.30
7331;DHT22;3706;49.198;7.064;2023-08-20T10:11:29;46.00;49.60
7331;DHT22;3706;49.198;7.064;2023-08-20T10:13:56;45.90;49.30
7331;DHT22;3706;49.198;7.064;2023-08-20T10:16:24;45.70;49.70
7331;DHT22;3706;49.198;7.064;2023-08-20T10:18:55;45.10;49.90
7331;DHT22;3706;49.198;7.064;2023-08-20T10:21:25;44.40;50.90
7331;DHT22;3706;49.198;7.064;2023-08-20T10:23:53;44.20;50.80
7331;DHT22;3706;49.198;7.064;2023-08-20T10:26:20;44.50;50.00
7331;DHT22;3706;49.198;7.064;2023-08-20T10:28:50;44.90;47.80
7331;DHT22;3706;49.198;7.064;2023-08-20T10:31:17;44.80;47.40
7331;DHT22;3706;49.198;7.064;2023-08-20T10:33:50;44.50;47.90
7331;DHT22;3706;49.198;7.064;2023-08-20T10:36:21;44.40;48.60
7331;DHT22;3706;49.198;7.064;2023-08-20T10:38:52;44.80;48.90
7331;DHT22;3706;49.198;7.064;2023-08-20T10:41:24;44.70;48.40
7331;DHT22;3706;49.198;7.064;2023-08-20T10:43:52;44.00;49.00
7331;DHT22;3706;49.198;7.064;2023-08-20T10:46:20;43.30;50.60
7331;DHT22;3706;49.198;7.064;2023-08-20T10:48:48;42.70;51.80
7331;DHT22;3706;49.198;7.064;2023-08-20T10:51:17;42.40;51.30
7331;DHT22;3706;49.198;7.064;2023-08-20T10:54:04;42.60;51.20
7331;DHT22;3706;49.198;7.064;2023-08-20T10:56:43;43.00;50.80
7331;DHT22;3706;49.198;7.064;2023-08-20T10:59:13;43.50;51.10
7331;DHT22;3706;49.198;7.064;2023-08-20T11:01:43;43.70;49.90
7331;DHT22;3706;49.198;7.064;2023-08-20T11:04:11;44.10;49.50
7331;DHT22;3706;49.198;7.064;2023-08-20T11:06:38;44.50;48.90
7331;DHT22;3706;49.198;7.064;2023-08-20T11:09:07;44.90;48.90
7331;DHT22;3706;49.198;7.064;2023-08-20T11:11:35;45.50;48.30
7331;DHT22;3706;49.198;7.064;2023-08-20T11:14:05;45.50;48.00
7331;DHT22;3706;49.198;7.064;2023-08-20T11:16:33;45.10;49.00
7331;DHT22;3706;49.198;7.064;2023-08-20T11:19:01;44.50;49.20
7331;DHT22;3706;49.198;7.064;2023-08-20T11:21:31;43.70;50.60
7331;DHT22;3706;49.198;7.064;2023-08-20T11:24:00;43.60;50.60
7331;DHT22;3706;49.198;7.064;2023-08-20T11:26:29;43.50;50.60
7331;DHT22;3706;49.198;7.064;2023-08-20T11:28:56;43.30;51.40
7331;DHT22;3706;49.198;7.064;2023-08-20T11:31:23;43.30;51.40
7331;DHT22;3706;49.198;7.064;2023-08-20T11:33:51;43.60;50.70
7331;DHT22;3706;49.198;7.064;2023-08-20T11:36:20;44.00;49.70
7331;DHT22;3706;49.198;7.064;2023-08-20T11:38:50;44.10;50.30
7331;DHT22;3706;49.198;7.064;2023-08-20T11:41:18;43.90;51.00
7331;DHT22;3706;49.198;7.064;2023-08-20T11:43:47;43.40;50.80
7331;DHT22;3706;49.198;7.064;2023-08-20T11:46:14;42.90;52.20
7331;DHT22;3706;49.198;7.064;2023-08-20T11:49:00;42.80;52.10
7331;DHT22;3706;49.198;7.064;2023-08-20T11:51:28;42.70;52.40
7331;DHT22;3706;49.198;7.064;2023-08-20T11:53:55;42.70;52.70
7331;DHT22;3706;49.198;7.064;2023-08-20T11:56:22;42.90;52.30
7331;DHT22;3706;49.198;7.064;2023-08-20T11:58:52;43.30;51.50
7331;DHT22;3706;49.198;7.064;2023-08-20T12:01:20;43.10;51.10
7331;DHT22;3706;49.198;7.064;2023-08-20T12:03:47;43.30;51.40
7331;DHT22;3706;49.198;7.064;2023-08-20T12:06:18;43.40;51.10
7331;DHT22;3706;49.198;7.064;2023-08-20T12:08:52;43.70;50.80
7331;DHT22;3706;49.198;7.064;2023-08-20T12:11:24;43.90;51.20
7331;DHT22;3706;49.198;7.064;2023-08-20T12:14:03;43.90;51.10
7331;DHT22;3706;49.198;7.064;2023-08-20T12:16:32;43.80;50.60
7331;DHT22;3706;49.198;7.064;2023-08-20T12:18:59;43.60;49.70
7331;DHT22;3706;49.198;7.064;2023-08-20T12:21:27;43.00;50.70
7331;DHT22;3706;49.198;7.064;2023-08-20T12:23:54;42.20;52.20
7331;DHT22;3706;49.198;7.064;2023-08-20T12:26:21;41.30;53.40
7331;DHT22;3706;49.198;7.064;2023-08-20T12:28:48;41.00;54.40
7331;DHT22;3706;49.198;7.064;2023-08-20T12:31:18;40.90;53.90
7331;DHT22;3706;49.198;7.064;2023-08-20T12:33:45;40.70;54.50
7331;DHT22;3706;49.198;7.064;2023-08-20T12:36:12;40.70;54.70
7331;DHT22;3706;49.198;7.064;2023-08-20T12:38:40;40.90;54.30
7331;DHT22;3706;49.198;7.064;2023-08-20T12:41:07;41.30;54.00
7331;DHT22;3706;49.198;7.064;2023-08-20T12:43:34;40.90;54.20
7331;DHT22;3706;49.198;7.064;2023-08-20T12:46:01;40.60;54.80
7331;DHT22;3706;49.198;7.064;2023-08-20T12:48:30;40.60;54.80
7331;DHT22;3706;49.198;7.064;2023-08-20T12:50:58;40.70;54.80
7331;DHT22;3706;49.198;7.064;2023-08-20T12:53:25;40.60;54.80
7331;DHT22;3706;49.198;7.064;2023-08-20T12:55:52;40.80;55.50
7331;DHT22;3706;49.198;7.064;2023-08-20T12:58:20;41.10;54.20
7331;DHT22;3706;49.198;7.064;2023-08-20T13:00:47;41.40;54.10
7331;DHT22;3706;49.198;7.064;2023-08-20T13:03:14;41.50;52.90
7331;DHT22;3706;49.198;7.064;2023-08-20T13:05:44;41.00;53.70
7331;DHT22;3706;49.198;7.064;2023-08-20T13:08:11;40.10;54.90
7331;DHT22;3706;49.198;7.064;2023-08-20T13:10:39;39.00;57.60
7331;DHT22;3706;49.198;7.064;2023-08-20T13:13:10;38.10;59.40
7331;DHT22;3706;49.198;7.064;2023-08-20T13:15:37;37.90;61.50
7331;DHT22;3706;49.198;7.064;2023-08-20T13:18:06;38.00;60.40
7331;DHT22;3706;49.198;7.064;2023-08-20T13:20:36;37.80;60.80
7331;DHT22;3706;49.198;7.064;2023-08-20T13:23:09;37.90;60.70
7331;DHT22;3706;49.198;7.064;2023-08-20T13:25:39;38.30;59.90
7331;DHT22;3706;49.198;7.064;2023-08-20T13:28:09;38.30;59.20
7331;DHT22;3706;49.198;7.064;2023-08-20T13:30:38;38.30;59.40
7331;DHT22;3706;49.198;7.064;2023-08-20T13:33:07;38.30;59.30
7331;DHT22;3706;49.198;7.064;2023-08-20T13:35:36;38.40;59.90
7331;DHT22;3706;49.198;7.064;2023-08-20T13:38:06;38.50;60.40
7331;DHT22;3706;49.198;7.064;2023-08-20T13:40:35;38.60;59.40
7331;DHT22;3706;49.198;7.064;2023-08-20T13:43:05;38.70;60.50
7331;DHT22;3706;49.198;7.064;2023-08-20T13:45:38;38.90;60.90
7331;DHT22;3706;49.198;7.064;2023-08-20T13:48:06;39.00;59.60
7331;DHT22;3706;49.198;7.064;2023-08-20T13:50:34;38.90;60.70
7331;DHT22;3706;49.198;7.064;2023-08-20T13:53:07;38.80;61.30
7331;DHT22;3706;49.198;7.064;2023-08-20T13:55:36;38.40;60.80
7331;DHT22;3706;49.198;7.064;2023-08-20T13:58:06;38.10;61.00
7331;DHT22;3706;49.198;7.064;2023-08-20T14:00:34;37.80;62.00
7331;DHT22;3706;49.198;7.064;2023-08-20T14:03:03;37.80;63.20
7331;DHT22;3706;49.198;7.064;2023-08-20T14:05:31;37.60;63.50
7331;DHT22;3706;49.198;7.064;2023-08-20T14:08:00;37.30;61.70
7331;DHT22;3706;49.198;7.064;2023-08-20T14:10:31;37.10;62.40
7331;DHT22;3706;49.198;7.064;2023-08-20T14:13:00;36.90;63.80
7331;DHT22;3706;49.198;7.064;2023-08-20T14:15:30;36.80;63.60
7331;DHT22;3706;49.198;7.064;2023-08-20T14:18:03;36.60;62.90
7331;DHT22;3706;49.198;7.064;2023-08-20T14:20:32;36.50;64.80
7331;DHT22;3706;49.198;7.064;2023-08-20T14:23:01;36.40;65.80
7331;DHT22;3706;49.198;7.064;2023-08-20T14:25:34;36.40;65.30
7331;DHT22;3706;49.198;7.064;2023-08-20T14:28:03;36.40;64.20
7331;DHT22;3706;49.198;7.064;2023-08-20T14:30:35;36.40;64.30
7331;DHT22;3706;49.198;7.064;2023-08-20T14:33:03;36.50;65.10
7331;DHT22;3706;49.198;7.064;2023-08-20T14:35:30;36.60;65.00
7331;DHT22;3706;49.198;7.064;2023-08-20T14:37:57;36.60;65.70
7331;DHT22;3706;49.198;7.064;2023-08-20T14:40:24;36.60;65.30
7331;DHT22;3706;49.198;7.064;2023-08-20T14:42:53;36.70;65.10
7331;DHT22;3706;49.198;7.064;2023-08-20T14:45:20;36.60;65.10
7331;DHT22;3706;49.198;7.064;2023-08-20T14:47:47;36.50;64.40
7331;DHT22;3706;49.198;7.064;2023-08-20T14:50:14;36.40;64.00
7331;DHT22;3706;49.198;7.064;2023-08-20T14:52:41;36.30;65.30
7331;DHT22;3706;49.198;7.064;2023-08-20T14:55:08;36.30;66.20
7331;DHT22;3706;49.198;7.064;2023-08-20T14:57:35;36.20;66.60
7331;DHT22;3706;49.198;7.064;2023-08-20T15:00:06;36.00;67.20
7331;DHT22;3706;49.198;7.064;2023-08-20T15:02:35;35.80;65.70
7331;DHT22;3706;49.198;7.064;2023-08-20T15:05:04;35.60;66.30
7331;DHT22;3706;49.198;7.064;2023-08-20T15:07:32;35.40;67.20
7331;DHT22;3706;49.198;7.064;2023-08-20T15:09:59;35.30;67.00
7331;DHT22;3706;49.198;7.064;2023-08-20T15:12:26;35.20;67.20
7331;DHT22;3706;49.198;7.064;2023-08-20T15:14:53;35.10;67.70
7331;DHT22;3706;49.198;7.064;2023-08-20T15:17:21;35.00;68.10
7331;DHT22;3706;49.198;7.064;2023-08-20T15:19:48;35.00;68.30
7331;DHT22;3706;49.198;7.064;2023-08-20T15:22:15;34.90;68.80
7331;DHT22;3706;49.198;7.064;2023-08-20T15:24:42;34.70;69.40
7331;DHT22;3706;49.198;7.064;2023-08-20T15:27:09;34.60;69.80
7331;DHT22;3706;49.198;7.064;2023-08-20T15:29:36;34.40;69.30
7331;DHT22;3706;49.198;7.064;2023-08-20T15:32:04;34.30;70.10
7331;DHT22;3706;49.198;7.064;2023-08-20T15:34:32;34.10;69.90
7331;DHT22;3706;49.198;7.064;2023-08-20T15:36:59;34.10;69.20
7331;DHT22;3706;49.198;7.064;2023-08-20T15:39:26;34.00;69.90
7331;DHT22;3706;49.198;7.064;2023-08-20T15:41:54;33.90;69.60
7331;DHT22;3706;49.198;7.064;2023-08-20T15:44:21;33.80;70.90
7331;DHT22;3706;49.198;7.064;2023-08-20T15:46:48;33.70;70.00
7331;DHT22;3706;49.198;7.064;2023-08-20T15:49:15;33.70;71.80
7331;DHT22;3706;49.198;7.064;2023-08-20T15:51:43;33.50;73.10
7331;DHT22;3706;49.198;7.064;2023-08-20T15:54:12;33.40;72.60
7331;DHT22;3706;49.198;7.064;2023-08-20T15:56:39;33.30;72.70
7331;DHT22;3706;49.198;7.064;2023-08-20T15:59:07;33.20;72.60
7331;DHT22;3706;49.198;7.064;2023-08-20T16:01:34;33.10;72.60
7331;DHT22;3706;49.198;7.064;2023-08-20T16:04:01;33.10;72.70
7331;DHT22;3706;49.198;7.064;2023-08-20T16:06:29;33.00;73.20
7331;DHT22;3706;49.198;7.064;2023-08-20T16:08:57;32.90;72.30
7331;DHT22;3706;49.198;7.064;2023-08-20T16:11:24;32.80;72.60